Tiempo atmosférico en la estación meteorológica de Fresno De Sayago, Zamora (804 m.)



Fecha
DESCASC
Temp. máxima en grados centígrados (hora)
DESCASC
Temp. mínima en grados centígrados (hora)
DESCASC
Temp. media en grados centígrados
DESCASC
Racha de viento máxima en m/sg (hora)
DESCASC
Velocidad máxima media en intervalos de 10 minutos(hora)
DESCASC
Precipitaciones diarias en mm
DESCASC
Precipitaciones de 00:00 a 06:00 en mm
DESCASC
Precipitaciones de 06:00 a 12:00 en mm
DESCASC
Precipitaciones de 12:00 a 18:00 en mm
DESCASC
Precipitaciones de 18:00 a 24:00 en mm
DESCASC
05-04-2020 13.6 (15:00) 6 (03:10) 9.8 13.33 (15:40) 8.33 (12:00) 25.4 0 0 2.8 22.6
04-04-2020 19.9 (15:50) 1.1 (08:10) 10.5 10.56 (18:40) 7.78 (17:40) 0 0 0 0 0
03-04-2020 16.9 (18:00) 0.3 (07:10) 8.6 7.22 (10:00) 5.28 (09:50) 0 0 0 0 0
02-04-2020 14 (18:40) 4.1 (00:00) 9 12.5 (11:40) 6.39 (11:40) 2 0 0.6 1.4 0
01-04-2020 14.6 (17:10) 0 (00:00) 7.3 6.67 (21:40) 5 (22:30) 0 0 0 0 0
31-03-2020 9.1 (17:10) -0.5 (-00:0) 4.3 18.33 (05:40) 11.67 (10:30) 0.2 0 0 0.2 0
30-03-2020 7.2 (00:00) 1.2 (00:00) 4.2 18.89 (10:40) 12.5 (10:20) 0 0 0 0 0
29-03-2020 20.6 (18:30) -0.4 (00:00) 10.1 16.67 (23:40) 10 (23:59) 0 0 0 0 0
28-03-2020 15.9 (16:30) -1.6 (-00:0) 7.1 8.33 (13:40) 5.83 (11:00) 0 0 0 0 0
27-03-2020 12.9 (16:40) -1.4 (-00:0) 5.7 13.89 (10:40) 9.44 (09:50) 0 0 0 0 0
26-03-2020 19.2 (17:40) -1.7 (-00:0) 8.8 8.61 (22:50) 6.39 (23:59) 0 0 0 0 0
25-03-2020 18.6 (16:50) 2.4 (00:00) 10.5 10.83 (18:00) 6.94 (17:20) 0 0 0 0 0
24-03-2020 16.3 (16:10) 2.6 (00:00) 9.4 10.28 (15:40) 6.39 (10:50) 0 0 0 0 0
23-03-2020 15.5 (16:00) 3.8 (00:00) 9.6 10.56 (04:40) 7.22 (14:40) 0.6 0.4 0 0 0.2
22-03-2020 14.5 (16:50) 4.6 (03:00) 9.5 8.61 (17:40) 5 (18:00) 0.2 0.2 0 0 0
21-03-2020 9.1 (15:40) 6.2 (00:00) 7.7 7.22 (03:40) 4.72 (04:00) 1.8 0 0.4 0.8 0.6
20-03-2020 12.1 (11:20) 7.5 (00:00) 9.8 8.61 (15:30) 5.83 (15:30) 3 0 0 2.2 0.8
19-03-2020 15.4 (16:00) 5.5 (00:00) 10.4 10.56 (09:40) 6.67 (09:30) 0 0 0 0 0
18-03-2020 15.4 (17:10) 5.4 (00:00) 10.4 11.67 (07:40) 8.06 (08:10) 0 0 0 0 0
17-03-2020 14.5 (16:50) 4 (00:00) 9.3 18.06 (02:40) 12.5 (02:10) 2.6 2.6 0 0 0
16-03-2020 7.7 (15:40) 0 (00:00) 3.8 16.11 (23:40) 10.83 (12:00) 7.4 3 2 1 1.4
15-03-2020 16.2 (13:10) 1.5 (00:00) 8.9 18.89 (14:40) 11.67 (19:50) 0.2 0 0 0 0.2
14-03-2020 22.5 (19:00) -0.4 (00:00) 11 6.11 (11:30) 4.72 (11:30) 0 0 0 0 0
13-03-2020 15.2 (16:50) 4.7 (23:30) 9.9 15.28 (06:40) 9.72 (07:50) 0 0 0 0 0
12-03-2020 22.3 (11:20) 8.6 (00:00) 15.4 11.11 (23:40) 8.33 (23:30) 0 0 0 0 0
11-03-2020 23.3 (15:40) 4.5 (00:00) 13.9 8.06 (14:40) 4.44 (14:50) 0 0 0 0 0
10-03-2020 20.1 (16:40) 3.3 (00:00) 11.7 8.89 (17:00) 6.11 (16:30) 0 0 0 0 0
09-03-2020 15.1 (16:50) 0.3 (00:00) 7.7 8.06 (00:40) 5.83 (03:00) 0 0 0 0 0

Gráficas

Temp. máximas Temp. mínimas Temp. medias Precipitaciones Rachas de viento máximas Velocidades máximas media en intervalos de 10 minutos

Datos horarios

Fecha y hora oficial Temperatura (ºC) Velocidad del viento (km/h) Dirección del viento Racha (km/h) Dirección de racha Precipitación (mm) Presión (hPa) Tendencia (hPa) Humedad (%)
2020-04-07 23:00:00 10.8 6 Sur 10 Sur 0 -- -- 47
2020-04-07 22:00:00 11.4 6 Sudoeste 12 Oeste 0 -- -- 47
2020-04-07 21:00:00 13.5 12 Oeste 23 Sudoeste 0 -- -- 48
2020-04-07 20:00:00 16.4 20 Sudoeste 38 Sudoeste 0 -- -- 46
2020-04-07 19:00:00 16.2 26 Sudoeste 48 Sudoeste 0 -- -- 45
2020-04-07 18:00:00 19.6 22 Sudoeste 29 Sudoeste 0 -- -- 33
2020-04-07 17:00:00 17.4 19 Sudoeste 30 Sudoeste 0 -- -- 42
2020-04-07 16:00:00 18.5 19 Oeste 28 Sudoeste 0.2 -- -- 47
2020-04-07 15:00:00 18.7 8 Sudoeste 15 Sur 0 -- -- 47
2020-04-07 14:00:00 17.4 10 Sudoeste 16 Sudoeste 0 -- -- 47
2020-04-07 13:00:00 15.3 10 Sudoeste 19 Sudoeste 0 -- -- 48
2020-04-07 12:00:00 15.4 9 Sur 15 Sur 0 -- -- 48
2020-04-07 11:00:00 14.3 9 Sudeste 13 Sur 0 -- -- 47
2020-04-07 10:00:00 12.1 8 Sudeste 13 Este 0 -- -- 48
2020-04-07 09:00:00 10.5 9 Sudeste 13 Sudeste 0 -- -- 49
2020-04-07 08:00:00 7.9 8 Sudeste 12 Sudeste 0 -- -- 49
2020-04-07 07:00:00 7.7 3 Sudeste 9 Sudeste 0 -- -- 49
2020-04-07 06:00:00 7.9 3 Sudeste 8 Sur 0 -- -- 49
2020-04-07 05:00:00 8.2 7 Sur 14 Sudeste 0 -- -- 49
2020-04-07 04:00:00 9.9 8 Sur 12 Sur 0 -- -- 49
2020-04-07 03:00:00 10 6 Sur 9 Sur 0 -- -- 49
2020-04-07 02:00:00 9.9 5 Este 12 Este 0 -- -- 49
2020-04-07 01:00:00 9.8 9 Este 13 Este 0 -- -- 49
2020-04-07 00:00:00 9.8 9 Este 15 Este 0 -- -- 49
2020-04-06 23:00:00 9.7 10 Este 14 Este 0 -- -- 49
2020-04-06 22:00:00 9.8 5 Este 9 Este 0.8 -- -- 49
2020-04-06 21:00:00 9.8 4 Este 5 Este 1.2 -- -- 49
2020-04-06 20:00:00 10.8 3 Este 5 Este 0.4 -- -- 49
2020-04-06 19:00:00 11.1 0 Calma 9 Oeste 0.2 -- -- 49
2020-04-06 18:00:00 10.8 7 Sudoeste 18 Sudoeste 1 -- -- 48
2020-04-06 17:00:00 11.2 12 Sudoeste 22 Sudoeste 0.4 -- -- 48
2020-04-06 16:00:00 12.3 12 Sudoeste 28 Sudoeste 0 -- -- 48
2020-04-06 15:00:00 11.5 15 Sudoeste 23 Sudoeste 0.2 -- -- 48
2020-04-06 14:00:00 12 19 Sudoeste 27 Sudoeste 0 -- -- 47
2020-04-06 13:00:00 12.1 14 Sudoeste 24 Sudoeste 0 -- -- 47
2020-04-06 12:00:00 11 11 Oeste 24 Sudoeste 0 -- -- 47
2020-04-06 11:00:00 10.2 14 Sudoeste 21 Sudoeste 0 -- -- 47
2020-04-06 10:00:00 9.3 12 Sudoeste 27 Oeste 0 -- -- 47
2020-04-06 09:00:00 9.1 20 Sudoeste 30 Sudoeste 0 -- -- 47
2020-04-06 08:00:00 9.5 18 Sudoeste 25 Sudoeste 0 -- -- 47
2020-04-06 07:00:00 9.9 15 Oeste 28 Sudoeste 0 -- -- 47
2020-04-06 06:00:00 10.4 18 Oeste 36 Oeste 0 -- -- 47
2020-04-06 05:00:00 10.8 24 Sudoeste 36 Sudoeste 0 -- -- 47
2020-04-06 04:00:00 11.4 23 Sudoeste 31 Sudoeste 0.2 -- -- 47
2020-04-06 03:00:00 11 16 Sudoeste 33 Sur 1 -- -- 47
2020-04-06 02:00:00 10.7 10 Sur 16 Sur 1 -- -- 52
2020-04-06 01:00:00 10.7 7 Sudeste 14 Sur 0.4 -- -- 52
2020-04-06 00:00:00 10.7 11 Sudeste 17 Sudeste 0 -- -- 52
2020-04-05 23:00:00 10.6 9 Sudeste 14 Sudeste 5.2 -- -- 52
2020-04-05 22:00:00 10.5 5 Sudeste 10 Sur 4.6 -- -- 52
2020-04-05 21:00:00 10.5 9 Sudoeste 21 Sudoeste 5 -- -- 52
2020-04-05 20:00:00 10.8 13 Sudoeste 19 Sudoeste 6 -- -- 52
2020-04-05 19:00:00 11.3 15 Sudoeste 31 Sur 1.8 -- -- 52
2020-04-05 18:00:00 11.8 19 Sur 31 Sur 0.4 -- -- 53
2020-04-05 17:00:00 11.5 15 Sur 32 Sur 1 -- -- 52
2020-04-05 16:00:00 12.3 18 Sur 48 Sur 0.2 -- -- 52
2020-04-05 15:00:00 13.6 22 Sur 30 Sur 0.8 -- -- 52
2020-04-05 14:00:00 12 20 Sur 30 Sur 0 -- -- 52
2020-04-05 13:00:00 11.3 17 Sudoeste 36 Sudoeste 0.4 -- -- 52
2020-04-05 12:00:00 12.9 30 Sudoeste 40 Sur 0 -- -- 43
2020-04-05 11:00:00 13.2 18 Sur 27 Sur 0 -- -- 46
2020-04-05 10:00:00 11.4 14 Sur 24 Sudoeste 0 -- -- 52
2020-04-05 09:00:00 8.9 8 Sudeste 12 Sudeste 0 -- -- 53
2020-04-05 08:00:00 8.3 8 Sur 15 Sur 0 -- -- 53
2020-04-05 07:00:00 7.4 11 Sudeste 18 Sur 0 -- -- 63
2020-04-05 06:00:00 7.5 13 Sur 20 Sur 0 -- -- 63
2020-04-05 05:00:00 7.4 11 Sur 21 Sur 0 -- -- 61
2020-04-05 04:00:00 7.6 9 Sur 14 Sur 0 -- -- 60
2020-04-05 03:00:00 6.4 4 Sudeste 9 Sur 0 -- -- 48
2020-04-05 02:00:00 9.6 7 Sur 15 Sur 0 -- -- 48
2020-04-05 01:00:00 10 12 Sudoeste 21 Sur 0 -- -- 48
2020-04-05 00:00:00 11.4 17 Sudoeste 27 Sur 0 -- -- 40
2020-04-04 23:00:00 11.6 10 Sur 20 Sur 0 -- -- 40
2020-04-04 22:00:00 11.8 12 Sur 20 Sudoeste 0 -- -- 39
2020-04-04 21:00:00 12.3 14 Sur 32 Sur 0 -- -- 33
2020-04-04 20:00:00 13.7 23 Sur 37 Sudoeste 0 -- -- 29
2020-04-04 19:00:00 15.3 22 Sudoeste 38 Sudoeste 0 -- -- 24
2020-04-04 18:00:00 16.2 22 Sudoeste 37 Sudoeste 0 -- -- 24
2020-04-04 17:00:00 17.2 12 Sudoeste 25 Sur 0 -- -- 19
2020-04-04 16:00:00 18.8 5 Sur 16 Sur 0 -- -- 16
2020-04-04 15:00:00 18.3 6 Sur 22 Nordeste 0 -- -- 16
2020-04-04 14:00:00 16.4 6 Este 22 Nordeste 0 -- -- 25
2020-04-04 13:00:00 14.1 16 Nordeste 25 Este 0 -- -- 39
2020-04-04 12:00:00 10.9 15 Nordeste 20 Nordeste 0 -- -- 47
2020-04-04 11:00:00 7.1 16 Nordeste 27 Nordeste 0 -- -- 47
2020-04-04 10:00:00 3.5 18 Este 25 Nordeste 0 -- -- 47
2020-04-04 09:00:00 1.8 21 Nordeste 28 Nordeste 0 -- -- 47
2020-04-04 08:00:00 1.2 19 Nordeste 26 Nordeste 0 -- -- 47
2020-04-04 07:00:00 1.8 16 Nordeste 19 Nordeste 0 -- -- 47
2020-04-04 06:00:00 2.1 10 Nordeste 15 Nordeste 0 -- -- 47
2020-04-04 05:00:00 2.2 8 Nordeste 10 Nordeste 0 -- -- 47
2020-04-04 04:00:00 2.3 7 Nordeste 10 Este 0 -- -- 47
2020-04-04 03:00:00 5.3 8 Este 12 Este 0 -- -- 47
2020-04-04 02:00:00 5.8 9 Sudeste 15 Este 0 -- -- 47
2020-04-04 01:00:00 6.3 9 Sudeste 14 Este 0 -- -- 47
2020-04-04 00:00:00 6.4 12 Este 17 Este 0 -- -- 47
2020-04-03 23:00:00 5.5 10 Este 18 Este 0 -- -- 47
2020-04-03 22:00:00 6.2 9 Nordeste 15 Nordeste 0 -- -- 47
2020-04-03 21:00:00 8.2 11 Nordeste 16 Nordeste 0 -- -- 47
2020-04-03 20:00:00 14.6 10 Este 15 Nordeste 0 -- -- 27
2020-04-03 19:00:00 16.8 7 Este 18 Nordeste 0 -- -- 18
2020-04-03 18:00:00 16.9 9 Este 16 Nordeste 0 -- -- 21
2020-04-03 17:00:00 15.7 8 Nordeste 20 Nordeste 0 -- -- 22
2020-04-03 16:00:00 16 5 Este 15 Nordeste 0 -- -- 23
2020-04-03 15:00:00 15.4 7 Este 18 Nordeste 0 -- -- 25
2020-04-03 14:00:00 13.1 10 Nordeste 21 Nordeste 0 -- -- 32
2020-04-03 13:00:00 11.8 11 Nordeste 22 Este 0 -- -- 32
2020-04-03 12:00:00 10.6 10 Este 22 Este 0 -- -- 43
2020-04-03 11:00:00 7.6 18 Este 25 Este 0 -- -- 46
2020-04-03 10:00:00 5.1 18 Este 26 Este 0 -- -- 46
2020-04-03 09:00:00 2.1 14 Este 22 Este 0 -- -- 46
2020-04-03 08:00:00 1.5 12 Este 15 Este 0 -- -- 46
2020-04-03 07:00:00 0.4 10 Nordeste 21 Nordeste 0 -- -- 46
2020-04-03 06:00:00 2.3 18 Este 22 Nordeste 0 -- -- 46
2020-04-03 05:00:00 1.5 13 Este 23 Nordeste 0 -- -- 46
2020-04-03 04:00:00 1.3 13 Nordeste 23 Este 0 -- -- 45
2020-04-03 03:00:00 1.9 14 Nordeste 21 Este 0 -- -- 46
2020-04-03 02:00:00 3.4 10 Este 22 Este 0 -- -- 46
2020-04-03 01:00:00 4.3 11 Este 17 Este 0 -- -- 46
2020-04-03 00:00:00 5.2 6 Este 11 Este 0 -- -- 46
2020-04-02 23:00:00 4.9 8 Este 16 Este 0 -- -- 46
2020-04-02 22:00:00 6.1 10 Nordeste 12 Nordeste 0 -- -- 46
2020-04-02 21:00:00 6.7 11 Nordeste 24 Nordeste 0 -- -- 46
2020-04-02 20:00:00 11.4 6 Este 22 Nordeste 0 -- -- 46
2020-04-02 19:00:00 12.2 18 Nordeste 30 Este 0 -- -- 46
2020-04-02 18:00:00 10.5 9 Nordeste 29 Nordeste 0 -- -- 46
2020-04-02 17:00:00 12.2 17 Nordeste 30 Este 0 -- -- 46
2020-04-02 16:00:00 11.8 20 Este 29 Nordeste 0 -- -- 46
2020-04-02 15:00:00 11 18 Nordeste 32 Nordeste 0 -- -- 46
2020-04-02 14:00:00 8.3 17 Nordeste 27 Este 1.4 -- -- 46
2020-04-02 13:00:00 9.1 18 Nordeste 28 Nordeste 0 -- -- 46
2020-04-02 12:00:00 8.1 20 Nordeste 45 Nordeste 0 -- -- 46
2020-04-02 11:00:00 6.9 21 Nordeste 30 Nordeste 0.2 -- -- 46
2020-04-02 10:00:00 6.7 18 Nordeste 30 Nordeste 0 -- -- 46
2020-04-02 09:00:00 6 18 Nordeste 25 Nordeste 0.2 -- -- 46
2020-04-02 08:00:00 5.9 13 Nordeste 20 Nordeste 0.2 -- -- 46
2020-04-02 07:00:00 5.6 12 Nordeste 18 Nordeste 0 -- -- 46
2020-04-02 06:00:00 4.9 14 Nordeste 21 Nordeste 0 -- -- 46
2020-04-02 05:00:00 4.5 13 Nordeste 21 Nordeste 0 -- -- 46
2020-04-02 04:00:00 5.5 15 Nordeste 22 Nordeste 0 -- -- 46
2020-04-02 03:00:00 4.1 13 Nordeste 21 Nordeste 0 -- -- 46
2020-04-02 02:00:00 4.7 10 Nordeste 13 Norte 0 -- -- 46
2020-04-02 01:00:00 4.8 3 Sudeste 18 Este 0 -- -- 46
2020-04-02 00:00:00 5.7 9 Este 17 Este 0 -- -- 58
2020-04-01 23:00:00 5.7 13 Este 23 Nordeste 0 -- -- 58
2020-04-01 22:00:00 7.6 15 Nordeste 24 Nordeste 0 -- -- 61
2020-04-01 21:00:00 8.4 5 Oeste 9 Noroeste 0 -- -- 38
2020-04-01 20:00:00 12.2 6 Noroeste 15 Sudoeste 0 -- -- 29
2020-04-01 19:00:00 12.2 11 Sudoeste 19 Sudoeste 0 -- -- 26
2020-04-01 18:00:00 13.2 14 Sudoeste 20 Sudoeste 0 -- -- 23
2020-04-01 17:00:00 13.5 6 Sur 14 Sudoeste 0 -- -- 22
2020-04-01 16:00:00 11.6 7 Oeste 17 Noroeste 0 -- -- 37
2020-04-01 15:00:00 10.8 6 Nordeste 12 Norte 0 -- -- 43
2020-04-01 14:00:00 9.1 4 Oeste 12 Oeste 0 -- -- 45
2020-04-01 13:00:00 9 4 Oeste 13 Oeste 0 -- -- 42
2020-04-01 12:00:00 6 4 Noroeste 10 Nordeste 0 -- -- 44
2020-04-01 11:00:00 4.6 3 Sur 8 Oeste 0 -- -- 52
2020-04-01 10:00:00 3.9 3 Oeste 8 Sudoeste 0 -- -- 48
2020-04-01 09:00:00 1.3 4 Sudoeste 6 Sudoeste 0 -- -- 47
2020-04-01 08:00:00 0 2 Sudeste 10 Oeste 0 -- -- 46
2020-04-01 07:00:00 1.8 0 Calma 15 Oeste 0 -- -- 46
2020-04-01 06:00:00 3.8 12 Oeste 17 Oeste 0 -- -- 48
2020-04-01 05:00:00 5.5 5 Oeste 13 Oeste 0 -- -- 54
2020-04-01 04:00:00 5.6 8 Oeste 14 Oeste 0 -- -- 48
2020-04-01 03:00:00 4.9 8 Oeste 12 Oeste 0 -- -- 48
2020-04-01 02:00:00 4.3 5 Sudoeste 12 Sudoeste 0 -- -- 47
2020-04-01 01:00:00 5.1 7 Sur 14 Sur 0 -- -- 54
2020-04-01 00:00:00 5.4 10 Este 24 Nordeste 0 -- -- 46
2020-03-31 23:00:00 6.9 18 Este 23 Nordeste 0 -- -- 46
2020-03-31 22:00:00 7 17 Nordeste 28 Nordeste 0 -- -- 46
2020-03-31 21:00:00 7.1 21 Nordeste 32 Nordeste 0 -- -- 62
2020-03-31 20:00:00 8.1 24 Nordeste 40 Este 0 -- -- 57
2020-03-31 19:00:00 8.3 23 Nordeste 33 Nordeste 0 -- -- 58
2020-03-31 18:00:00 8.7 22 Este 34 Este 0 -- -- 52
2020-03-31 17:00:00 7.8 18 Este 29 Nordeste 0 -- -- 56
2020-03-31 16:00:00 7.2 20 Este 30 Este 0.2 -- -- 56
2020-03-31 15:00:00 6.9 23 Este 36 Este 0 -- -- 46
2020-03-31 14:00:00 6.6 26 Este 44 Este 0 -- -- 45
2020-03-31 13:00:00 6.5 30 Este 50 Nordeste 0 -- -- 43
2020-03-31 12:00:00 4.6 37 Nordeste 63 Nordeste 0 -- -- 47
2020-03-31 11:00:00 1.6 38 Nordeste 60 Este 0 -- -- 54
2020-03-31 10:00:00 0.9 36 Nordeste 58 Nordeste 0 -- -- 56
2020-03-31 09:00:00 -0.3 38 Nordeste 50 Nordeste 0 -- -- 58
2020-03-31 08:00:00 -0.4 36 Nordeste 64 Nordeste 0 -- -- 56
2020-03-31 07:00:00 -0.3 32 Nordeste 48 Nordeste 0 -- -- 55
2020-03-31 06:00:00 -0.2 36 Nordeste 66 Nordeste 0 -- -- 54
2020-03-31 05:00:00 0.1 34 Nordeste 59 Nordeste 0 -- -- 50
2020-03-31 04:00:00 0.4 28 Este 41 Nordeste 0 -- -- 46
2020-03-31 03:00:00 0.4 32 Nordeste 43 Nordeste 0 -- -- 46
2020-03-31 02:00:00 0.4 27 Nordeste 49 Nordeste 0 -- -- 47
2020-03-31 01:00:00 0.8 31 Nordeste 49 Nordeste 0 -- -- 45
2020-03-31 00:00:00 1.2 32 Este 55 Nordeste 0 -- -- 42
2020-03-30 23:00:00 1.8 35 Nordeste 61 Este 0 -- -- 39
2020-03-30 22:00:00 2.8 31 Este 53 Este 0 -- -- 30
2020-03-30 21:00:00 3.3 30 Este 47 Este 0 -- -- 28
2020-03-30 20:00:00 3.8 31 Este 46 Nordeste 0 -- -- 27
2020-03-30 19:00:00 4.5 33 Este 50 Este 0 -- -- 28
2020-03-30 18:00:00 4.9 27 Este 50 Este 0 -- -- 26
2020-03-30 17:00:00 4.8 27 Este 45 Nordeste 0 -- -- 27
2020-03-30 16:00:00 4.5 34 Este 47 Este 0 -- -- 28
2020-03-30 15:00:00 3.4 31 Este 51 Este 0 -- -- 34
2020-03-30 14:00:00 3.1 38 Nordeste 52 Este 0 -- -- 37
2020-03-30 13:00:00 3 33 Este 56 Este 0 -- -- 41
2020-03-30 12:00:00 3.4 32 Este 46 Este 0 -- -- 39
2020-03-30 11:00:00 2.3 33 Este 68 Este 0 -- -- 47
2020-03-30 10:00:00 1.9 42 Nordeste 61 Este 0 -- -- 47
2020-03-30 09:00:00 2 36 Este 52 Este 0 -- -- 53
2020-03-30 08:00:00 1.9 41 Este 55 Nordeste 0 -- -- 56
2020-03-30 07:00:00 2.9 36 Nordeste 59 Este 0 -- -- 53
2020-03-30 06:00:00 3.4 40 Nordeste 54 Nordeste 0 -- -- 55
2020-03-30 05:00:00 3.9 31 Nordeste 48 Este 0 -- -- 55
2020-03-30 04:00:00 4.6 35 Este 48 Nordeste 0 -- -- 54
2020-03-30 03:00:00 5.1 25 Nordeste 37 Nordeste 0 -- -- 59
2020-03-30 02:00:00 5.7 27 Nordeste 48 Nordeste 0 -- -- 58
2020-03-30 01:00:00 6.4 33 Nordeste 45 Nordeste 0 -- -- 52
2020-03-30 00:00:00 7.2 36 Nordeste 60 Nordeste 0 -- -- 49
2020-03-29 23:00:00 8.7 27 Nordeste 40 Nordeste 0 -- -- 42
2020-03-29 22:00:00 8.5 6 Este 9 Nordeste 0 -- -- 48
2020-03-29 21:00:00 10.3 7 Este 9 Este 0 -- -- 40
2020-03-29 20:00:00 18.4 0 Calma 5 Sur 0 -- -- 12
2020-03-29 19:00:00 18.4 2 Nordeste 7 Nordeste 0 -- -- 12
2020-03-29 18:00:00 19.5 4 Este 9 Sudoeste 0 -- -- 7
2020-03-29 17:00:00 18.1 4 Noroeste 10 Oeste 0 -- -- 9
2020-03-29 16:00:00 16.8 5 Oeste 10 Este 0 -- -- 16
2020-03-29 15:00:00 16.1 6 Nordeste 16 Este 0 -- -- 15
2020-03-29 14:00:00 15.2 8 Este 17 Nordeste 0 -- -- 30
2020-03-29 13:00:00 12.4 13 Nordeste 20 Nordeste 0 -- -- 38
2020-03-29 12:00:00 9.8 13 Nordeste 17 Nordeste 0 -- -- 45
2020-03-29 11:00:00 6.4 13 Nordeste 22 Nordeste 0 -- -- 51
2020-03-29 10:00:00 4.7 19 Nordeste 27 Nordeste 0 -- -- 51
2020-03-29 09:00:00 1.9 14 Nordeste 18 Nordeste 0 -- -- 65
2020-03-29 08:00:00 -0.2 10 Nordeste 16 Nordeste 0 -- -- 64
2020-03-29 07:00:00 0.7 6 Este 13 Nordeste 0 -- -- 60
2020-03-29 06:00:00 0 3 Nordeste 12 Nordeste 0 -- -- 66
2020-03-29 05:00:00 1.4 5 Nordeste 10 Nordeste 0 -- -- 60
2020-03-29 03:00:00 3 9 Sudeste 13 Sudoeste 0 -- -- 49
2020-03-29 01:00:00 3.5 0 Calma 4 Este 0 -- -- 51
2020-03-29 00:00:00 3.5 0 Calma 3 Oeste 0 -- -- 57
2020-03-28 23:00:00 4.8 0 Calma 4 Nordeste 0 -- -- 49
2020-03-28 22:00:00 5.7 3 Este 7 Nordeste 0 -- -- 45
2020-03-28 21:00:00 5.8 6 Nordeste 8 Nordeste 0 -- -- 47
2020-03-28 20:00:00 7.7 7 Nordeste 9 Nordeste 0 -- -- 43
2020-03-28 19:00:00 10.8 5 Nordeste 14 Nordeste 0 -- -- 35
2020-03-28 18:00:00 12.9 11 Nordeste 16 Nordeste 0 -- -- 14
2020-03-28 17:00:00 15.9 9 Este 21 Este 0 -- -- 4
2020-03-28 16:00:00 15.3 10 Este 28 Nordeste 0 -- -- 16
2020-03-28 15:00:00 14.2 15 Este 27 Nordeste 0 -- -- 18
2020-03-28 14:00:00 12.8 16 Nordeste 30 Este 0 -- -- 22
2020-03-28 13:00:00 11.8 13 Nordeste 28 Este 0 -- -- 30
2020-03-28 12:00:00 10.1 18 Nordeste 26 Nordeste 0 -- -- 34
2020-03-28 11:00:00 7.8 21 Nordeste 26 Nordeste 0 -- -- 43
2020-03-28 10:00:00 5 18 Nordeste 26 Nordeste 0 -- -- 50
2020-03-28 09:00:00 2.3 20 Nordeste 29 Nordeste 0 -- -- 58
2020-03-28 08:00:00 0.1 17 Nordeste 24 Nordeste 0 -- -- 63
2020-03-28 07:00:00 -0.5 15 Nordeste 17 Nordeste 0 -- -- 60
2020-03-28 06:00:00 -1.3 10 Nordeste 14 Nordeste 0 -- -- 64
2020-03-28 05:00:00 -1.3 8 Nordeste 11 Nordeste 0 -- -- 66
2020-03-28 04:00:00 -0.9 3 Este 9 Nordeste 0 -- -- 65
2020-03-28 03:00:00 -0.9 8 Nordeste 16 Nordeste 0 -- -- 65
2020-03-28 02:00:00 0.8 3 Sudoeste 6 Sur 0 -- -- 55
2020-03-28 01:00:00 0.4 3 Sur 4 Sudoeste 0 -- -- 56
2020-03-28 00:00:00 2 2 Sur 8 Sudeste 0 -- -- 50
2020-03-27 23:00:00 2.3 6 Sudeste 9 Sudeste 0 -- -- 47
2020-03-27 22:00:00 3.4 7 Sudeste 10 Sudeste 0 -- -- 42
2020-03-27 21:00:00 3.7 5 Este 7 Este 0 -- -- 42
2020-03-27 20:00:00 6.1 5 Este 12 Sudeste 0 -- -- 32
2020-03-27 19:00:00 11.5 9 Sudeste 19 Este 0 -- -- 13
2020-03-27 18:00:00 12.1 13 Este 25 Este 0 -- -- 9
2020-03-27 17:00:00 11.5 14 Sudeste 32 Este 0 -- -- 7
2020-03-27 16:00:00 11.4 14 Este 34 Nordeste 0 -- -- 12
2020-03-27 15:00:00 10.1 19 Este 38 Este 0 -- -- 12
2020-03-27 14:00:00 8.9 19 Este 40 Nordeste 0 -- -- 21
2020-03-27 13:00:00 8 30 Nordeste 41 Este 0 -- -- 24
2020-03-27 12:00:00 6.8 27 Nordeste 43 Este 0 -- -- 28
2020-03-27 11:00:00 4.9 28 Nordeste 50 Este 0 -- -- 37
2020-03-27 10:00:00 2.6 32 Nordeste 40 Nordeste 0 -- -- 49
2020-03-27 09:00:00 0.6 29 Nordeste 38 Nordeste 0 -- -- 54
2020-03-27 08:00:00 -0.9 23 Nordeste 32 Nordeste 0 -- -- 47
2020-03-27 07:00:00 -0.8 27 Nordeste 33 Nordeste 0 -- -- 47
2020-03-27 06:00:00 -0.7 21 Este 25 Nordeste 0 -- -- 55
2020-03-27 05:00:00 0.1 17 Este 26 Este 0 -- -- 55
2020-03-27 04:00:00 0.7 18 Este 30 Este 0 -- -- 55
2020-03-27 03:00:00 1.4 22 Este 37 Este 0 -- -- 55
2020-03-27 02:00:00 2.4 29 Nordeste 40 Nordeste 0 -- -- 54
2020-03-27 01:00:00 2.8 24 Nordeste 33 Nordeste 0 -- -- 53
2020-03-27 00:00:00 3.7 23 Nordeste 31 Nordeste 0 -- -- 50
2020-03-26 23:00:00 5.2 18 Este 31 Este 0 -- -- 48
2020-03-26 22:00:00 3.9 13 Este 15 Este 0 -- -- 53
2020-03-26 21:00:00 6.6 5 Este 12 Este 0 -- -- 37
2020-03-26 20:00:00 8 7 Este 16 Este 0 -- -- 32
2020-03-26 19:00:00 14.9 12 Este 17 Este 0 -- -- 14
2020-03-26 18:00:00 18.9 4 Sudeste 10 Nordeste 0 -- -- 6
2020-03-26 17:00:00 17 6 Noroeste 17 Oeste 0 -- -- 4
2020-03-26 16:00:00 16.7 4 Este 17 Norte 0 -- -- 7
2020-03-26 15:00:00 15.8 5 Noroeste 15 Noroeste 0 -- -- 8
2020-03-26 14:00:00 14.8 5 Oeste 15 Oeste 0 -- -- 11
2020-03-26 13:00:00 13.4 5 Sudoeste 10 Sudoeste 0 -- -- 18
2020-03-26 12:00:00 12.6 5 Norte 11 Este 0 -- -- 19
2020-03-26 11:00:00 10.7 5 Sur 14 Sur 0 -- -- 19
2020-03-26 10:00:00 8 9 Sur 15 Sur 0 -- -- 25
2020-03-26 09:00:00 5.5 7 Este 16 Nordeste 0 -- -- 40
2020-03-26 08:00:00 -0.2 10 Nordeste 13 Nordeste 0 -- -- 56
2020-03-26 07:00:00 -1.5 0 Calma 5 Nordeste 0 -- -- 56
2020-03-26 06:00:00 -0.2 3 Este 6 Nordeste 0 -- -- 55
2020-03-26 05:00:00 0.1 2 Sudeste 9 Sudoeste 0 -- -- 53
2020-03-26 04:00:00 1.4 2 Sur 14 Este 0 -- -- 43
2020-03-26 03:00:00 2.4 13 Este 24 Este 0 -- -- 41
2020-03-26 02:00:00 2.2 13 Este 17 Nordeste 0 -- -- 47
2020-03-26 01:00:00 3.5 12 Este 20 Nordeste 0 -- -- 44
2020-03-26 00:00:00 7.2 16 Nordeste 19 Nordeste 0 -- -- 25
2020-03-25 23:00:00 8.8 14 Norte 22 Norte 0 -- -- 22
2020-03-25 22:00:00 9.6 13 Nordeste 30 Norte 0 -- -- 38
2020-03-25 21:00:00 11.5 8 Noroeste 17 Oeste 0 -- -- 36
2020-03-25 20:00:00 13.6 14 Oeste 26 Oeste 0 -- -- 29
2020-03-25 19:00:00 15.2 14 Noroeste 33 Oeste 0 -- -- 22
2020-03-25 18:00:00 17.8 24 Oeste 39 Oeste 0 -- -- 17
2020-03-25 17:00:00 16.5 23 Oeste 35 Oeste 0 -- -- 24
2020-03-25 16:00:00 16 14 Oeste 24 Noroeste 0 -- -- 25
2020-03-25 15:00:00 16.4 14 Noroeste 27 Oeste 0 -- -- 30
2020-03-25 14:00:00 16.5 15 Oeste 27 Oeste 0 -- -- 21
2020-03-25 13:00:00 16 18 Noroeste 33 Noroeste 0 -- -- 31
2020-03-25 12:00:00 14.6 20 Oeste 35 Noroeste 0 -- -- 35
2020-03-25 11:00:00 13.5 8 Oeste 12 Noroeste 0 -- -- 43
2020-03-25 10:00:00 10.2 4 Sur 8 Sur 0 -- -- 46
2020-03-25 09:00:00 7.2 3 Sudeste 5 Sudeste 0 -- -- 46
2020-03-25 08:00:00 4.5 4 Este 7 Sudeste 0 -- -- 46
2020-03-25 07:00:00 4.4 3 Sur 15 Nordeste 0 -- -- 46
2020-03-25 06:00:00 4.6 15 Nordeste 17 Nordeste 0 -- -- 46
2020-03-25 05:00:00 3.8 11 Nordeste 13 Nordeste 0 -- -- 46
2020-03-25 04:00:00 2.4 8 Nordeste 11 Nordeste 0 -- -- 45
2020-03-25 03:00:00 3.6 9 Nordeste 10 Nordeste 0 -- -- 45
2020-03-25 02:00:00 3.2 9 Nordeste 11 Nordeste 0 -- -- 55
2020-03-25 01:00:00 4.3 6 Nordeste 8 Nordeste 0 -- -- 49
2020-03-25 00:00:00 5.8 2 Sur 16 Este 0 -- -- 48
2020-03-24 23:00:00 4.3 8 Este 12 Este 0 -- -- 56
2020-03-24 22:00:00 5.8 10 Este 19 Este 0 -- -- 55
2020-03-24 21:00:00 7.3 9 Nordeste 17 Nordeste 0 -- -- 55
2020-03-24 20:00:00 10.2 13 Nordeste 21 Nordeste 0 -- -- 49
2020-03-24 19:00:00 13.5 17 Nordeste 27 Este 0 -- -- 35
2020-03-24 18:00:00 14 17 Nordeste 28 Este 0 -- -- 32
2020-03-24 17:00:00 15 18 Nordeste 31 Nordeste 0 -- -- 26
2020-03-24 16:00:00 15.9 18 Este 37 Nordeste 0 -- -- 30
2020-03-24 15:00:00 15 19 Este 30 Este 0 -- -- 30
2020-03-24 14:00:00 14.3 19 Nordeste 35 Este 0 -- -- 37
2020-03-24 13:00:00 13.8 19 Este 32 Este 0 -- -- 48
2020-03-24 12:00:00 11.7 20 Este 35 Nordeste 0 -- -- 47
2020-03-24 11:00:00 8.1 23 Nordeste 30 Este 0 -- -- 54
2020-03-24 10:00:00 6.2 19 Nordeste 24 Nordeste 0 -- -- 48
2020-03-24 09:00:00 4 19 Nordeste 27 Nordeste 0 -- -- 48
2020-03-24 08:00:00 3.4 21 Nordeste 33 Nordeste 0 -- -- 47
2020-03-24 07:00:00 3.1 20 Nordeste 25 Nordeste 0 -- -- 49
2020-03-24 06:00:00 3.2 19 Nordeste 24 Nordeste 0 -- -- 54
2020-03-24 05:00:00 2.7 17 Nordeste 20 Este 0 -- -- 57
2020-03-24 04:00:00 3.2 18 Nordeste 30 Nordeste 0 -- -- 49
2020-03-24 03:00:00 4.1 19 Nordeste 25 Nordeste 0 -- -- 57
2020-03-24 02:00:00 3.5 15 Nordeste 21 Nordeste 0 -- -- 55
2020-03-24 01:00:00 6.5 13 Este 22 Este 0 -- -- 49
2020-03-24 00:00:00 6.9 12 Este 21 Este 0 -- -- 54
2020-03-23 23:00:00 6.6 13 Este 18 Este 0 -- -- 56
2020-03-23 22:00:00 5 11 Nordeste 15 Nordeste 0 -- -- 50
2020-03-23 21:00:00 5.2 10 Nordeste 12 Nordeste 0 -- -- 49
2020-03-23 20:00:00 7.3 9 Nordeste 20 Este 0 -- -- 49
2020-03-23 19:00:00 9.9 12 Este 33 Este 0.2 -- -- 48
2020-03-23 18:00:00 14.7 17 Este 31 Nordeste 0 -- -- 35
2020-03-23 17:00:00 15 22 Este 31 Nordeste 0 -- -- 32
2020-03-23 16:00:00 15.5 17 Este 35 Nordeste 0 -- -- 28
2020-03-23 15:00:00 14.2 24 Nordeste 36 Nordeste 0 -- -- 38
2020-03-23 14:00:00 13.4 22 Nordeste 36 Este 0 -- -- 49
2020-03-23 13:00:00 13.1 18 Nordeste 35 Nordeste 0 -- -- 47
2020-03-23 12:00:00 10.3 17 Nordeste 28 Este 0 -- -- 49
2020-03-23 11:00:00 8.2 20 Nordeste 28 Nordeste 0 -- -- 49
2020-03-23 10:00:00 6.6 17 Nordeste 28 Nordeste 0 -- -- 49
2020-03-23 09:00:00 4.3 20 Nordeste 34 Nordeste 0 -- -- 49
2020-03-23 08:00:00 3.8 18 Nordeste 25 Nordeste 0 -- -- 47
2020-03-23 07:00:00 4.1 16 Nordeste 31 Nordeste 0 -- -- 47
2020-03-23 06:00:00 4.3 17 Nordeste 27 Nordeste 0 -- -- 47
2020-03-23 05:00:00 4.2 16 Nordeste 38 Nordeste 0 -- -- 47
2020-03-23 04:00:00 5 16 Nordeste 23 Nordeste 0 -- -- 47
2020-03-23 03:00:00 6.3 17 Nordeste 27 Nordeste 0 -- -- 47
2020-03-23 02:00:00 6.9 12 Nordeste 19 Nordeste 0 -- -- 47
2020-03-23 01:00:00 7.8 12 Norte 27 Este 0.4 -- -- 47
2020-03-23 00:00:00 7.8 10 Nordeste 13 Nordeste 0 -- -- 48
2020-03-22 23:00:00 7 4 Nordeste 12 Noroeste 0 -- -- 48
2020-03-22 22:00:00 6.3 3 Norte 5 Norte 0 -- -- 48
2020-03-22 21:00:00 6.3 3 Sudeste 5 Este 0 -- -- 48
2020-03-22 20:00:00 9.1 3 Sudeste 10 Sudeste 0 -- -- 48
2020-03-22 19:00:00 12.2 7 Sudeste 21 Este 0 -- -- 48
2020-03-22 18:00:00 13.6 18 Nordeste 31 Nordeste 0 -- -- 42
2020-03-22 17:00:00 14.2 11 Nordeste 21 Nordeste 0 -- -- 48
2020-03-22 16:00:00 13.3 9 Nordeste 18 Este 0 -- -- 48
2020-03-22 15:00:00 13.6 12 Este 16 Nordeste 0 -- -- 48
2020-03-22 14:00:00 12 9 Nordeste 17 Nordeste 0 -- -- 48
2020-03-22 13:00:00 10.2 11 Nordeste 17 Nordeste 0 -- -- 48
2020-03-22 12:00:00 10.4 10 Este 18 Este 0 -- -- 47
2020-03-22 11:00:00 9.4 12 Este 20 Nordeste 0 -- -- 48
2020-03-22 10:00:00 7.6 13 Este 21 Nordeste 0 -- -- 48
2020-03-22 09:00:00 6.6 15 Nordeste 21 Nordeste 0 -- -- 48
2020-03-22 08:00:00 5.8 13 Nordeste 17 Nordeste 0 -- -- 48
2020-03-22 07:00:00 5.8 13 Nordeste 21 Nordeste 0 -- -- 48
2020-03-22 06:00:00 5.9 8 Nordeste 17 Nordeste 0 -- -- 47
2020-03-22 05:00:00 6 10 Nordeste 16 Nordeste 0 -- -- 48
2020-03-22 04:00:00 5.9 9 Nordeste 12 Nordeste 0 -- -- 49
2020-03-22 03:00:00 4.6 6 Nordeste 8 Nordeste 0 -- -- 47
2020-03-22 02:00:00 5.2 7 Nordeste 12 Nordeste 0 -- -- 47
2020-03-22 01:00:00 6 8 Nordeste 10 Nordeste 0.2 -- -- 47
2020-03-22 00:00:00 6.2 5 Norte 10 Noroeste 0.2 -- -- 47
2020-03-21 23:00:00 6.5 5 Norte 9 Norte 0 -- -- 47
2020-03-21 22:00:00 6.6 3 Norte 6 Noroeste 0 -- -- 48
2020-03-21 21:00:00 6.7 5 Noroeste 10 Noroeste 0 -- -- 49
2020-03-21 20:00:00 7 5 Norte 10 Noroeste 0.2 -- -- 49
2020-03-21 19:00:00 7.7 6 Noroeste 10 Noroeste 0.2 -- -- 47
2020-03-21 18:00:00 8 5 Oeste 11 Noroeste 0 -- -- 48
2020-03-21 17:00:00 8.1 7 Noroeste 14 Oeste 0 -- -- 47
2020-03-21 16:00:00 8.4 7 Oeste 13 Oeste 0 -- -- 48
2020-03-21 15:00:00 8.5 9 Sudoeste 16 Sudoeste 0.2 -- -- 47
2020-03-21 14:00:00 7 14 Sudoeste 19 Sudoeste 0.2 -- -- 47
2020-03-21 13:00:00 7 12 Sudoeste 21 Sudoeste 0.4 -- -- 47
2020-03-21 12:00:00 7.5 10 Sudoeste 13 Sur 0 -- -- 47
2020-03-21 11:00:00 6.7 6 Sudoeste 15 Oeste 0 -- -- 47
2020-03-21 10:00:00 6.5 10 Oeste 18 Sudoeste 0.2 -- -- 47
2020-03-21 09:00:00 7.6 7 Nordeste 10 Nordeste 0.2 -- -- 47
2020-03-21 08:00:00 7.6 3 Noroeste 8 Este 0 -- -- 47
2020-03-21 07:00:00 7.9 5 Este 8 Este 0 -- -- 47
2020-03-21 06:00:00 7.9 4 Sudeste 14 Sudeste 0 -- -- 47
2020-03-21 05:00:00 8.4 12 Sudeste 23 Sur 0 -- -- 47
2020-03-21 04:00:00 8.7 17 Sudeste 26 Sudeste 0 -- -- 47
2020-03-21 03:00:00 8.1 12 Este 22 Este 0 -- -- 48
2020-03-21 02:00:00 7.9 13 Este 21 Este 0 -- -- 48
2020-03-21 01:00:00 7.9 14 Nordeste 20 Este 0 -- -- 47
2020-03-21 00:00:00 8.2 12 Nordeste 22 Nordeste 0.4 -- -- 48
2020-03-20 23:00:00 8.2 9 Nordeste 14 Nordeste 0.4 -- -- 48
2020-03-20 22:00:00 7.7 11 Nordeste 18 Nordeste 0 -- -- 47
2020-03-20 21:00:00 7.5 14 Este 19 Este 0 -- -- 47
2020-03-20 20:00:00 9.9 14 Este 20 Este 0 -- -- 47
2020-03-20 19:00:00 10.6 4 Este 9 Sudeste 0 -- -- 47
2020-03-20 18:00:00 10.7 6 Sudeste 10 Este 0 -- -- 47
2020-03-20 17:00:00 10.6 6 Sudeste 16 Sur 0 -- -- 47
2020-03-20 16:00:00 8.4 14 Sur 31 Sudoeste 0 -- -- 47
2020-03-20 15:00:00 9.3 9 Oeste 23 Oeste 0.2 -- -- 47
2020-03-20 14:00:00 9 18 Sudoeste 28 Sudoeste 2 -- -- 61
2020-03-20 13:00:00 10.4 15 Sudoeste 23 Sudoeste 0 -- -- 48
2020-03-20 12:00:00 11.7 12 Sudoeste 22 Sudoeste 0 -- -- 47
2020-03-20 11:00:00 11.4 12 Nordeste 21 Nordeste 0 -- -- 61
2020-03-20 10:00:00 9.5 14 Nordeste 18 Nordeste 0 -- -- 48
2020-03-20 09:00:00 8.6 11 Nordeste 15 Nordeste 0 -- -- 48
2020-03-20 08:00:00 7.9 4 Sudeste 6 Nordeste 0 -- -- 48
2020-03-20 07:00:00 7.7 6 Nordeste 8 Este 0 -- -- 60
2020-03-20 06:00:00 7.7 3 Sudeste 8 Sur 0 -- -- 60
2020-03-20 05:00:00 8 2 Sudeste 8 Este 0 -- -- 60
2020-03-20 04:00:00 8.2 4 Este 7 Nordeste 0 -- -- 61
2020-03-20 03:00:00 8.8 0 Calma 7 Sudeste 0 -- -- 60
2020-03-20 02:00:00 8.5 2 Nordeste 6 Oeste 0 -- -- 60
2020-03-20 01:00:00 8.6 6 Sudoeste 11 Sudoeste 0 -- -- 62
2020-03-20 00:00:00 9.3 3 Sur 6 Este 0 -- -- 59
2020-03-19 23:00:00 9.3 3 Este 10 Este 0 -- -- 59
2020-03-19 22:00:00 9.8 4 Este 11 Nordeste 0 -- -- 59
2020-03-19 21:00:00 10.5 2 Nordeste 5 Sur 0 -- -- 59
2020-03-19 20:00:00 11.2 3 Sudeste 19 Nordeste 0 -- -- 59
2020-03-19 19:00:00 12.2 17 Nordeste 23 Nordeste 0 -- -- 59
2020-03-19 18:00:00 14.1 12 Este 21 Este 0 -- -- 59
2020-03-19 17:00:00 15 10 Este 19 Este 0 -- -- 59
2020-03-19 16:00:00 15.4 12 Este 20 Este 0 -- -- 59
2020-03-19 15:00:00 13.9 10 Este 19 Este 0 -- -- 59
2020-03-19 14:00:00 12.5 14 Nordeste 23 Nordeste 0 -- -- 59
2020-03-19 13:00:00 12.9 17 Nordeste 23 Este 0 -- -- 59
2020-03-19 12:00:00 12.2 13 Nordeste 22 Nordeste 0 -- -- 66
2020-03-19 11:00:00 10.1 16 Nordeste 28 Nordeste 0 -- -- 63
2020-03-19 10:00:00 7.8 22 Nordeste 38 Nordeste 0 -- -- 63
2020-03-19 09:00:00 6.4 21 Nordeste 26 Nordeste 0 -- -- 63
2020-03-19 08:00:00 5.6 17 Nordeste 23 Nordeste 0 -- -- 63
2020-03-19 07:00:00 5.8 17 Nordeste 20 Nordeste 0 -- -- 63
2020-03-19 06:00:00 6.5 15 Nordeste 18 Nordeste 0 -- -- 63
2020-03-19 05:00:00 6.7 13 Nordeste 15 Nordeste 0 -- -- 63
2020-03-19 04:00:00 7.6 13 Nordeste 22 Nordeste 0 -- -- 63
2020-03-19 03:00:00 6.8 11 Nordeste 17 Nordeste 0 -- -- 63
2020-03-19 02:00:00 7.3 10 Nordeste 17 Este 0 -- -- 63
2020-03-19 01:00:00 9.2 11 Este 19 Nordeste 0 -- -- 63
2020-03-19 00:00:00 8.3 13 Nordeste 24 Este 0 -- -- 63
2020-03-18 23:00:00 11.5 17 Nordeste 22 Nordeste 0 -- -- 63
2020-03-18 22:00:00 9.7 11 Este 14 Nordeste 0 -- -- 63
2020-03-18 21:00:00 10.3 13 Nordeste 17 Este 0 -- -- 63
2020-03-18 20:00:00 10.7 12 Este 15 Este 0 -- -- 63
2020-03-18 19:00:00 13 11 Nordeste 22 Este 0 -- -- 63
2020-03-18 18:00:00 15 18 Este 28 Este 0 -- -- 63
2020-03-18 17:00:00 15.3 21 Este 28 Nordeste 0 -- -- 61
2020-03-18 16:00:00 14.7 21 Nordeste 31 Este 0 -- -- 61
2020-03-18 15:00:00 14.2 23 Nordeste 36 Nordeste 0 -- -- 61
2020-03-18 14:00:00 12.6 26 Nordeste 42 Nordeste 0 -- -- 61
2020-03-18 13:00:00 11.1 29 Nordeste 36 Nordeste 0 -- -- 61
2020-03-18 12:00:00 8.6 27 Este 37 Nordeste 0 -- -- 61
2020-03-18 11:00:00 7.3 26 Nordeste 40 Nordeste 0 -- -- 61
2020-03-18 10:00:00 6.3 24 Nordeste 32 Nordeste 0 -- -- 61
2020-03-18 09:00:00 5.5 27 Nordeste 39 Nordeste 0 -- -- 64
2020-03-18 08:00:00 5.4 26 Nordeste 42 Nordeste 0 -- -- 64
2020-03-18 07:00:00 5.7 27 Nordeste 35 Nordeste 0 -- -- 64
2020-03-18 06:00:00 5.7 26 Nordeste 32 Nordeste 0 -- -- 64
2020-03-18 05:00:00 6.1 21 Nordeste 32 Nordeste 0 -- -- 64
2020-03-18 04:00:00 6.3 25 Nordeste 35 Nordeste 0 -- -- 64
2020-03-18 03:00:00 6.1 20 Nordeste 26 Nordeste 0 -- -- 64
2020-03-18 02:00:00 6.1 19 Nordeste 36 Nordeste 0 -- -- 64
2020-03-18 01:00:00 6.3 17 Nordeste 25 Nordeste 0 -- -- 64
2020-03-18 00:00:00 6.9 21 Nordeste 32 Nordeste 0 -- -- 64
2020-03-17 23:00:00 7.3 20 Nordeste 27 Nordeste 0 -- -- 64
2020-03-17 22:00:00 8.5 23 Nordeste 28 Nordeste 0 -- -- 64
2020-03-17 21:00:00 9.3 23 Nordeste 33 Nordeste 0 -- -- 64
2020-03-17 20:00:00 10.4 22 Nordeste 33 Nordeste 0 -- -- 64
2020-03-17 19:00:00 11.9 16 Nordeste 36 Nordeste 0 -- -- 63
2020-03-17 18:00:00 13.3 27 Nordeste 42 Nordeste 0 -- -- 57
2020-03-17 17:00:00 13.3 27 Nordeste 37 Nordeste 0 -- -- 54
2020-03-17 16:00:00 12.8 26 Nordeste 43 Nordeste 0 -- -- 57
2020-03-17 15:00:00 11.8 25 Nordeste 37 Nordeste 0 -- -- 60
2020-03-17 14:00:00 11.4 26 Este 38 Nordeste 0 -- -- 56
2020-03-17 13:00:00 10.5 28 Este 39 Este 0 -- -- 60
2020-03-17 12:00:00 9.7 28 Este 47 Nordeste 0 -- -- 61
2020-03-17 11:00:00 8.6 31 Este 43 Este 0 -- -- 63
2020-03-17 10:00:00 6.8 32 Nordeste 45 Nordeste 0 -- -- 63
2020-03-17 09:00:00 5.1 31 Nordeste 47 Nordeste 0 -- -- 63
2020-03-17 08:00:00 4.7 32 Nordeste 44 Nordeste 0 -- -- 62
2020-03-17 07:00:00 4.3 28 Nordeste 50 Nordeste 0 -- -- 62
2020-03-17 06:00:00 4.2 31 Nordeste 48 Nordeste 0 -- -- 62
2020-03-17 05:00:00 4.2 34 Nordeste 49 Nordeste 0.2 -- -- 63
2020-03-17 04:00:00 4 29 Nordeste 44 Nordeste 0.6 -- -- 64
2020-03-17 03:00:00 4 31 Nordeste 65 Este 0.8 -- -- 68
2020-03-17 02:00:00 4.2 45 Nordeste 62 Nordeste 1 -- -- 68
2020-03-17 01:00:00 4.4 33 Nordeste 60 Nordeste 0 -- -- 68
2020-03-17 00:00:00 4.6 31 Nordeste 58 Nordeste 0.2 -- -- 68
2020-03-16 23:00:00 4.2 28 Nordeste 45 Nordeste 0.2 -- -- 72
2020-03-16 22:00:00 4.7 30 Nordeste 40 Nordeste 0 -- -- 68
2020-03-16 21:00:00 4.7 27 Nordeste 46 Nordeste 0.4 -- -- 63
2020-03-16 20:00:00 4.9 30 Nordeste 42 Nordeste 0.6 -- -- 67
2020-03-16 19:00:00 5.4 23 Nordeste 47 Nordeste 0 -- -- 65
2020-03-16 18:00:00 6.1 34 Nordeste 46 Nordeste 0 -- -- 60
2020-03-16 17:00:00 6.4 25 Nordeste 51 Nordeste 0 -- -- 56
2020-03-16 16:00:00 7.6 29 Nordeste 39 Nordeste 0 -- -- 45
2020-03-16 15:00:00 6.8 27 Nordeste 50 Nordeste 0 -- -- 45
2020-03-16 14:00:00 6.6 22 Nordeste 37 Nordeste 0 -- -- 53
2020-03-16 13:00:00 4.1 19 Norte 45 Nordeste 1 -- -- 64
2020-03-16 12:00:00 3 39 Nordeste 56 Nordeste 0.2 -- -- 64
2020-03-16 11:00:00 5 28 Norte 44 Nordeste 0 -- -- 50
2020-03-16 10:00:00 3.9 18 Norte 34 Norte 0 -- -- 61
2020-03-16 09:00:00 1.9 13 Norte 19 Norte 0 -- -- 65
2020-03-16 08:00:00 0.7 11 Norte 18 Norte 1.2 -- -- 65
2020-03-16 07:00:00 0.1 11 Noroeste 22 Noroeste 0.6 -- -- 65
2020-03-16 06:00:00 0.1 13 Noroeste 20 Noroeste 0.8 -- -- 56
2020-03-16 05:00:00 0.2 12 Noroeste 19 Oeste 0.4 -- -- 64
2020-03-16 04:00:00 0.1 8 Noroeste 15 Noroeste 0.8 -- -- 62
2020-03-16 03:00:00 0.6 9 Noroeste 22 Noroeste 1 -- -- 72
2020-03-16 02:00:00 1.5 14 Oeste 22 Oeste 0 -- -- 72
2020-03-16 01:00:00 1.8 13 Noroeste 25 Oeste 0 -- -- 72
2020-03-16 00:00:00 1.6 17 Oeste 31 Oeste 0.2 -- -- 73
2020-03-15 23:00:00 2.1 19 Oeste 37 Noroeste 0 -- -- 69
2020-03-15 22:00:00 2.8 22 Oeste 33 Noroeste 0 -- -- 59
2020-03-15 21:00:00 3.1 19 Noroeste 55 Noroeste 0 -- -- 59
2020-03-15 20:00:00 5.1 39 Oeste 59 Oeste 0 -- -- 59
2020-03-15 19:00:00 10.6 22 Oeste 41 Oeste 0 -- -- 34
2020-03-15 18:00:00 12.7 22 Oeste 41 Oeste 0 -- -- 29
2020-03-15 17:00:00 12 30 Oeste 47 Oeste 0 -- -- 35
2020-03-15 16:00:00 12.9 27 Oeste 42 Oeste 0 -- -- 38
2020-03-15 15:00:00 12.5 33 Oeste 68 Oeste 0 -- -- 36
2020-03-15 14:00:00 15 31 Oeste 45 Oeste 0 -- -- 26
2020-03-15 13:00:00 16 22 Sudoeste 31 Sur 0 -- -- 25
2020-03-15 12:00:00 15.6 16 Oeste 28 Sudoeste 0 -- -- 28
2020-03-15 11:00:00 13.7 12 Sudoeste 18 Sudoeste 0 -- -- 27
2020-03-15 10:00:00 10.2 9 Sudoeste 12 Sudoeste 0 -- -- 38
2020-03-15 09:00:00 5.2 4 Sur 7 Sur 0 -- -- 48
2020-03-15 08:00:00 2.5 5 Sur 8 Sudoeste 0 -- -- 48
2020-03-15 07:00:00 1.9 5 Sur 6 Sur 0 -- -- 50
2020-03-15 06:00:00 2.9 5 Sur 6 Sur 0 -- -- 44
2020-03-15 05:00:00 3 5 Sur 6 Sur 0 -- -- 43
2020-03-15 04:00:00 3.7 4 Sur 9 Sur 0 -- -- 43
2020-03-15 03:00:00 4 5 Sur 6 Sur 0 -- -- 41
2020-03-15 02:00:00 3.7 0 Calma 5 Sur 0 -- -- 43
2020-03-15 01:00:00 4.6 3 Sur 8 Sur 0 -- -- 40
2020-03-15 00:00:00 6.1 3 Sur 6 Sudeste 0 -- -- 34
2020-03-14 23:00:00 6.9 3 Sur 5 Sudeste 0 -- -- 40
2020-03-14 22:00:00 6.7 3 Sudeste 5 Sudeste 0 -- -- 47
2020-03-14 21:00:00 7.4 -- -- -- -- 0 -- -- 50
2020-03-14 20:00:00 11 4 Este 7 Este 0 -- -- 36
2020-03-14 19:00:00 22.5 0 Calma 4 Sudoeste 0 -- -- 8
2020-03-14 18:00:00 19.2 3 Norte 8 Sudoeste 0 -- -- 10
2020-03-14 17:00:00 19.4 5 Sudoeste 8 Sudeste 0 -- -- 9
2020-03-14 16:00:00 18.9 6 Nordeste 12 Nordeste 0 -- -- 13
2020-03-14 15:00:00 17.6 6 Nordeste 15 Este 0 -- -- 20
2020-03-14 14:00:00 15.2 10 Este 21 Nordeste 0 -- -- 25
2020-03-14 13:00:00 14 13 Este 19 Este 0 -- -- 31
2020-03-14 12:00:00 10.8 14 Nordeste 22 Este 0 -- -- 37
2020-03-14 11:00:00 9.1 15 Nordeste 20 Nordeste 0 -- -- 56
2020-03-14 10:00:00 5.7 12 Nordeste 17 Nordeste 0 -- -- 57
2020-03-14 09:00:00 2.7 11 Nordeste 14 Nordeste 0 -- -- 57
2020-03-14 08:00:00 0.2 8 Nordeste 12 Este 0 -- -- 57
2020-03-14 07:00:00 -0.3 10 Este 18 Nordeste 0 -- -- 59
2020-03-14 06:00:00 0.1 9 Nordeste 16 Nordeste 0 -- -- 58
2020-03-14 05:00:00 0.4 10 Nordeste 14 Nordeste 0 -- -- 57
2020-03-14 04:00:00 1.4 10 Nordeste 15 Nordeste 0 -- -- 58
2020-03-14 03:00:00 2.5 9 Nordeste 15 Nordeste 0 -- -- 58
2020-03-14 02:00:00 3.5 13 Nordeste 18 Nordeste 0 -- -- 58
2020-03-14 01:00:00 4.8 12 Nordeste 15 Nordeste 0 -- -- 58
2020-03-14 00:00:00 4.8 6 Nordeste 20 Nordeste 0 -- -- 58
2020-03-13 23:00:00 5.4 18 Nordeste 25 Nordeste 0 -- -- 58
2020-03-13 22:00:00 6.8 15 Nordeste 21 Nordeste 0 -- -- 57
2020-03-13 21:00:00 6.7 13 Este 15 Nordeste 0 -- -- 57
2020-03-13 20:00:00 8.8 12 Nordeste 13 Nordeste 0 -- -- 57
2020-03-13 19:00:00 12 12 Nordeste 24 Nordeste 0 -- -- 50
2020-03-13 18:00:00 14.5 18 Nordeste 30 Nordeste 0 -- -- 41
2020-03-13 17:00:00 14.4 18 Nordeste 28 Nordeste 0 -- -- 42
2020-03-13 16:00:00 14.6 18 Nordeste 28 Este 0 -- -- 42
2020-03-13 15:00:00 14 19 Nordeste 34 Nordeste 0 -- -- 44
2020-03-13 14:00:00 12.9 21 Nordeste 31 Nordeste 0 -- -- 48
2020-03-13 13:00:00 11.6 22 Nordeste 38 Este 0 -- -- 51
2020-03-13 12:00:00 9.7 22 Nordeste 30 Este 0 -- -- 57
2020-03-13 11:00:00 8.3 23 Nordeste 33 Nordeste 0 -- -- 56
2020-03-13 10:00:00 7 26 Nordeste 41 Nordeste 0 -- -- 56
2020-03-13 09:00:00 6.6 23 Nordeste 44 Nordeste 0 -- -- 57
2020-03-13 08:00:00 6.1 30 Nordeste 48 Nordeste 0 -- -- 57
2020-03-13 07:00:00 5.8 32 Nordeste 55 Nordeste 0 -- -- 57
2020-03-13 06:00:00 5.2 28 Nordeste 38 Nordeste 0 -- -- 57
2020-03-13 05:00:00 5.6 28 Nordeste 37 Nordeste 0 -- -- 57
2020-03-13 04:00:00 6.5 22 Nordeste 33 Nordeste 0 -- -- 57
2020-03-13 03:00:00 6.4 21 Nordeste 29 Nordeste 0 -- -- 57
2020-03-13 02:00:00 6.8 22 Nordeste 35 Nordeste 0 -- -- 57
2020-03-13 01:00:00 7.6 25 Nordeste 41 Nordeste 0 -- -- 57
2020-03-13 00:00:00 8.7 28 Nordeste 40 Nordeste 0 -- -- 57
2020-03-12 23:00:00 9.6 28 Nordeste 35 Nordeste 0 -- -- 57
2020-03-12 22:00:00 12.3 14 Nordeste 18 Nordeste 0 -- -- 57
2020-03-12 21:00:00 13.3 4 Noroeste 8 Noroeste 0 -- -- 54
2020-03-12 20:00:00 15.1 5 Noroeste 10 Noroeste 0 -- -- 46
2020-03-12 19:00:00 17.1 5 Noroeste 11 Oeste 0 -- -- 43
2020-03-12 18:00:00 18.9 6 Sudoeste 10 Oeste 0 -- -- 33
2020-03-12 17:00:00 19.7 9 Oeste 20 Oeste 0 -- -- 26
2020-03-12 16:00:00 19.9 14 Oeste 18 Oeste 0 -- -- 28
2020-03-12 15:00:00 21.7 9 Oeste 23 Sudoeste 0 -- -- 23
2020-03-12 14:00:00 20.5 8 Nordeste 16 Nordeste 0 -- -- 35
2020-03-12 13:00:00 20.2 8 Este 15 Nordeste 0 -- -- 36
2020-03-12 12:00:00 20 5 Nordeste 13 Este 0 -- -- 33
2020-03-12 11:00:00 20 3 Nordeste 7 Nordeste 0 -- -- 25
2020-03-12 10:00:00 15.4 4 Sudeste 8 Sudeste 0 -- -- 48
2020-03-12 09:00:00 11.6 3 Sudeste 5 Sudeste 0 -- -- 53
2020-03-12 08:00:00 8.9 4 Sudeste 5 Sudeste 0 -- -- 57
2020-03-12 07:00:00 9.6 3 Sudeste 5 Sudeste 0 -- -- 56
2020-03-12 06:00:00 10.2 2 Sudeste 7 Sudeste 0 -- -- 55
2020-03-12 05:00:00 11 4 Sudeste 8 Sudeste 0 -- -- 51
2020-03-12 04:00:00 10.6 3 Sur 7 Sudeste 0 -- -- 53
2020-03-12 03:00:00 11.2 4 Sur 8 Sudeste 0 -- -- 51
2020-03-12 02:00:00 11.6 7 Sudeste 10 Sudeste 0 -- -- 50
2020-03-12 01:00:00 11.3 5 Sudeste 8 Sudeste 0 -- -- 48
2020-03-12 00:00:00 11.9 6 Sudeste 7 Sudeste 0 -- -- 48
2020-03-11 23:00:00 11.9 5 Sudeste 5 Sudeste 0 -- -- 54
2020-03-11 22:00:00 13 4 Sudeste 8 Sudeste 0 -- -- 48
2020-03-11 21:00:00 14 5 Sudeste 8 Sudeste 0 -- -- 47
2020-03-11 20:00:00 15.9 3 Sur 5 Sudeste 0 -- -- 37
2020-03-11 19:00:00 18.4 5 Oeste 13 Oeste 0 -- -- 26
2020-03-11 18:00:00 19.9 10 Oeste 19 Oeste 0 -- -- 24
2020-03-11 17:00:00 22.7 14 Oeste 23 Oeste 0 -- -- 16
2020-03-11 16:00:00 23.2 14 Oeste 22 Oeste 0 -- -- 13
2020-03-11 15:00:00 22.8 15 Oeste 29 Sudoeste 0 -- -- 14
2020-03-11 14:00:00 21.6 14 Sudoeste 22 Sudoeste 0 -- -- 22
2020-03-11 13:00:00 20.8 10 Sudoeste 16 Sudoeste 0 -- -- 24
2020-03-11 12:00:00 19.8 6 Sudoeste 10 Sudoeste 0 -- -- 27
2020-03-11 11:00:00 17.6 5 Sudoeste 9 Sur 0 -- -- 25
2020-03-11 10:00:00 13.9 4 Sur 6 Sur 0 -- -- 40
2020-03-11 09:00:00 8.6 4 Sudeste 8 Sur 0 -- -- 56
2020-03-11 08:00:00 4.5 5 Sudeste 6 Sudeste 0 -- -- 58
2020-03-11 07:00:00 5.9 6 Sudeste -- -- 0 -- -- 57
2020-03-11 06:00:00 5 4 Sudoeste 6 Sudoeste 0 -- -- 56
2020-03-11 05:00:00 5.2 5 Sur 7 Sudoeste 0 -- -- 56
2020-03-11 04:00:00 5 4 Sur 8 Sudoeste 0 -- -- 56
2020-03-11 03:00:00 5.3 6 Sudoeste 9 Sudoeste 0 -- -- 56
2020-03-11 02:00:00 5.9 4 Sur 8 Sur 0 -- -- 56
2020-03-11 01:00:00 6.9 4 Sudoeste 7 Sur 0 -- -- 53
2020-03-11 00:00:00 7.4 6 Sur 10 Sudoeste 0 -- -- 51
2020-03-10 23:00:00 9 3 Sur 8 Sur 0 -- -- 44
2020-03-10 22:00:00 10.4 6 Sudoeste 17 Oeste 0 -- -- 37
2020-03-10 21:00:00 12.8 13 Oeste 15 Oeste 0 -- -- 29
2020-03-10 20:00:00 15.1 13 Oeste 21 Oeste 0 -- -- 27
2020-03-10 19:00:00 17.4 16 Oeste 25 Oeste 0 -- -- 26
2020-03-10 18:00:00 19.8 17 Oeste 28 Oeste 0 -- -- 18
2020-03-10 17:00:00 19.8 20 Oeste 32 Sudoeste 0 -- -- 18
2020-03-10 16:00:00 19.3 19 Oeste 30 Oeste 0 -- -- 26
2020-03-10 15:00:00 19.2 19 Sudoeste 28 Sudoeste 0 -- -- 25
2020-03-10 14:00:00 18.4 14 Sudoeste 22 Sudoeste 0 -- -- 30
2020-03-10 13:00:00 16.9 10 Sudoeste 19 Oeste 0 -- -- 25
2020-03-10 12:00:00 15.1 13 Sudoeste 17 Sudoeste 0 -- -- 38
2020-03-10 11:00:00 12.4 8 Sudoeste 15 Sudoeste 0 -- -- 47
2020-03-10 10:00:00 8.4 9 Sudoeste 13 Sudoeste 0 -- -- 57
2020-03-10 09:00:00 5.2 6 Sudoeste 9 Sudoeste 0 -- -- 57
2020-03-10 08:00:00 3.7 6 Sudoeste 9 Sudoeste 0 -- -- 57
2020-03-10 07:00:00 3.8 7 Sudoeste 13 Sudoeste 0 -- -- 57
2020-03-10 06:00:00 3.3 10 Sudoeste 17 Sudoeste 0 -- -- 57
2020-03-10 05:00:00 4 9 Sudoeste 12 Sudoeste 0 -- -- 57
2020-03-10 04:00:00 4.2 6 Sudoeste 10 Sudoeste 0 -- -- 57
2020-03-10 03:00:00 4.1 4 Sur 11 Sudoeste 0 -- -- 57
2020-03-10 02:00:00 4.3 6 Sudoeste 8 Sudoeste 0 -- -- 57
2020-03-10 01:00:00 4.9 5 Sudoeste 7 Sudoeste 0 -- -- 57
2020-03-10 00:00:00 5 4 Sur 9 Sudoeste 0 -- -- 57
2020-03-09 23:00:00 6.3 6 Sudoeste 11 Sudoeste 0 -- -- 57
2020-03-09 22:00:00 6.6 5 Sudoeste 7 Sudoeste 0 -- -- 57
2020-03-09 21:00:00 7.3 5 Sudoeste 12 Oeste 0 -- -- 55
2020-03-09 20:00:00 8.8 6 Sudoeste 15 Oeste 0 -- -- 48
2020-03-09 19:00:00 11.8 10 Sudoeste 17 Sudoeste 0 -- -- 36
2020-03-09 18:00:00 14.2 12 Oeste 22 Oeste 0 -- -- 25
2020-03-09 17:00:00 14.9 12 Oeste 21 Sudoeste 0 -- -- 19
2020-03-09 16:00:00 14.5 9 Sudoeste 18 Sudoeste 0 -- -- 22
2020-03-09 15:00:00 14.3 6 Sudoeste 16 Sudoeste 0 -- -- 26
2020-03-09 14:00:00 13.7 5 Sudoeste 14 Oeste 0 -- -- 31
2020-03-09 13:00:00 11.8 7 Oeste 15 Oeste 0 -- -- 33
2020-03-09 12:00:00 10.8 5 Oeste 13 Oeste 0 -- -- 50
2020-03-09 11:00:00 8.4 7 Oeste 17 Oeste 0 -- -- 57
2020-03-09 10:00:00 5.3 13 Oeste 17 Oeste 0 -- -- 57
2020-03-09 09:00:00 2.4 4 Sur 9 Oeste 0 -- -- 57
2020-03-09 08:00:00 1.4 7 Oeste 13 Sudoeste 0 -- -- 57
2020-03-09 07:00:00 1.2 6 Sudoeste 14 Sur 0 -- -- 57
2020-03-09 06:00:00 0.8 5 Sudoeste 10 Sudoeste 0 -- -- 57
2020-03-09 05:00:00 1.7 3 Oeste 12 Oeste 0 -- -- 57
2020-03-09 04:00:00 3.3 8 Oeste 23 Oeste 0 -- -- 57
2020-03-09 03:00:00 4.6 21 Oeste 27 Oeste 0 -- -- 57
2020-03-09 02:00:00 4.8 13 Oeste 26 Oeste 0 -- -- 57
2020-03-09 01:00:00 5.8 19 Oeste 29 Oeste 0 -- -- 56
2020-03-09 00:00:00 6.1 17 Oeste 25 Oeste 0 -- -- 57